createdAt,value
2023-02-16T00:02:09.995Z,83.55
2023-02-16T00:04:36.981Z,84.50
2023-02-16T00:07:03.545Z,85.36
2023-02-16T00:09:30.184Z,85.89
2023-02-16T00:12:16.629Z,86.41
2023-02-16T00:14:43.234Z,88.42
2023-02-16T00:17:11.154Z,89.88
2023-02-16T00:19:40.439Z,90.62
2023-02-16T00:22:08.325Z,90.09
2023-02-16T00:24:35.277Z,89.93
2023-02-16T00:27:01.982Z,92.60
2023-02-16T00:29:34.765Z,93.71
2023-02-16T00:32:03.637Z,93.95
2023-02-16T00:34:40.150Z,93.74
2023-02-16T00:37:09.650Z,94.70
2023-02-16T00:39:37.085Z,94.38
2023-02-16T00:42:19.600Z,94.93
2023-02-16T00:44:49.033Z,94.57
2023-02-16T00:47:20.466Z,95.61
2023-02-16T00:49:49.419Z,97.25
2023-02-16T00:52:29.487Z,97.60
2023-02-16T00:54:57.366Z,97.41
2023-02-16T00:57:25.806Z,96.58
2023-02-16T01:00:00.555Z,94.71
2023-02-16T01:02:27.821Z,94.96
2023-02-16T01:04:55.548Z,95.24
2023-02-16T01:07:41.373Z,97.00
2023-02-16T01:10:27.037Z,96.75
2023-02-16T01:12:53.675Z,96.66
2023-02-16T01:15:23.270Z,97.39
2023-02-16T01:17:51.537Z,98.54
2023-02-16T01:20:21.313Z,97.81
2023-02-16T01:22:48.251Z,98.29
2023-02-16T01:25:15.873Z,97.91
2023-02-16T01:27:43.465Z,98.56
2023-02-16T01:30:16.686Z,98.10
2023-02-16T01:32:51.217Z,98.37
2023-02-16T01:35:19.772Z,97.58
2023-02-16T01:37:46.439Z,96.69
2023-02-16T01:40:26.584Z,96.36
2023-02-16T01:42:58.611Z,95.66
2023-02-16T01:45:38.852Z,95.61
2023-02-16T01:48:13.578Z,94.43
2023-02-16T01:50:53.498Z,94.71
2023-02-16T01:53:26.969Z,95.01
2023-02-16T01:55:58.779Z,94.80
2023-02-16T01:58:35.543Z,94.69
2023-02-16T02:01:02.417Z,94.78
2023-02-16T02:03:53.671Z,94.60
2023-02-16T02:06:33.738Z,93.93
2023-02-16T02:09:07.777Z,93.72
2023-02-16T02:12:00.580Z,93.31
2023-02-16T02:14:33.211Z,93.67
2023-02-16T02:17:08.145Z,93.49
2023-02-16T02:19:55.908Z,94.41
2023-02-16T02:22:52.276Z,93.15
2023-02-16T02:25:40.734Z,93.20
2023-02-16T02:28:17.423Z,93.78
2023-02-16T02:30:51.806Z,93.31
2023-02-16T02:33:28.505Z,93.06
2023-02-16T02:36:21.962Z,94.58
2023-02-16T02:39:19.842Z,94.76
2023-02-16T02:42:06.311Z,95.43
2023-02-16T02:44:46.756Z,95.73
2023-02-16T02:47:13.666Z,95.99
2023-02-16T02:49:49.539Z,94.66
2023-02-16T02:52:16.350Z,95.02
2023-02-16T02:55:02.252Z,93.22
2023-02-16T02:58:03.007Z,92.64
2023-02-16T03:00:41.918Z,92.85
2023-02-16T03:03:34.110Z,92.99
2023-02-16T03:06:13.403Z,93.45
2023-02-16T03:08:43.249Z,94.38
2023-02-16T03:11:34.557Z,92.32
2023-02-16T03:14:05.912Z,95.41
2023-02-16T03:16:44.665Z,96.43
2023-02-16T03:19:33.086Z,95.02
2023-02-16T03:22:19.267Z,93.28
2023-02-16T03:25:05.029Z,94.24
2023-02-16T03:27:59.738Z,94.37
2023-02-16T03:30:27.991Z,94.56
2023-02-16T03:32:54.901Z,95.41
2023-02-16T03:35:21.940Z,95.56
2023-02-16T03:37:48.692Z,95.93
2023-02-16T03:40:28.940Z,95.28
2023-02-16T03:42:57.874Z,95.82
2023-02-16T03:45:25.456Z,96.57
2023-02-16T03:47:52.740Z,95.81
2023-02-16T03:50:19.493Z,95.14
2023-02-16T03:52:46.094Z,93.48
2023-02-16T03:55:12.796Z,93.58
2023-02-16T03:57:39.398Z,93.45
2023-02-16T04:00:06.946Z,93.71
2023-02-16T04:02:40.042Z,94.46
2023-02-16T04:05:06.944Z,95.84
2023-02-16T04:07:33.650Z,96.67
2023-02-16T04:10:00.262Z,95.63
2023-02-16T04:12:39.039Z,95.45
2023-02-16T04:15:18.010Z,96.17
2023-02-16T04:17:45.033Z,95.35
2023-02-16T04:20:16.155Z,92.74
2023-02-16T04:22:43.853Z,94.01
2023-02-16T04:25:11.371Z,95.02
2023-02-16T04:27:40.628Z,95.68
2023-02-16T04:30:09.308Z,95.79
2023-02-16T04:32:35.911Z,95.85
2023-02-16T04:35:02.567Z,96.10
2023-02-16T04:37:31.081Z,97.35
2023-02-16T04:39:57.727Z,97.73
2023-02-16T04:42:24.514Z,96.55
2023-02-16T04:44:51.288Z,95.08
2023-02-16T04:47:18.133Z,96.05
2023-02-16T04:49:44.818Z,96.69
2023-02-16T04:52:13.298Z,96.63
2023-02-16T04:54:40.254Z,97.32
2023-02-16T04:57:06.911Z,97.22
2023-02-16T04:59:33.493Z,97.15
2023-02-16T05:02:00.180Z,98.18
2023-02-16T05:04:26.794Z,97.11
2023-02-16T05:06:53.511Z,97.51
2023-02-16T05:09:20.799Z,97.60
2023-02-16T05:12:05.788Z,97.25
2023-02-16T05:14:47.211Z,98.24
2023-02-16T05:17:19.532Z,97.78
2023-02-16T05:19:48.931Z,96.93
2023-02-16T05:22:16.063Z,97.65
2023-02-16T05:24:43.767Z,98.82
2023-02-16T05:27:16.847Z,98.25
2023-02-16T05:29:43.664Z,99.22
2023-02-16T05:32:10.946Z,99.64
2023-02-16T05:34:37.770Z,100.00
2023-02-16T05:37:05.084Z,100.00
2023-02-16T05:39:31.918Z,97.20
2023-02-16T05:41:58.597Z,96.51
2023-02-16T05:44:25.244Z,97.68
2023-02-16T05:46:51.888Z,97.96
2023-02-16T05:49:18.721Z,99.00
2023-02-16T05:51:45.711Z,98.61
2023-02-16T05:54:17.333Z,98.96
2023-02-16T05:56:46.230Z,99.52
2023-02-16T05:59:13.532Z,100.00
2023-02-16T06:01:41.018Z,99.53
2023-02-16T06:04:13.127Z,98.60
2023-02-16T06:06:40.452Z,99.77
2023-02-16T06:09:08.869Z,100.00
2023-02-16T06:11:35.873Z,100.00
2023-02-16T06:14:08.703Z,99.24
2023-02-16T06:16:37.267Z,100.00
2023-02-16T06:19:04.182Z,100.00
2023-02-16T06:21:31.002Z,100.00
2023-02-16T06:23:57.892Z,100.00
2023-02-16T06:26:25.172Z,100.00
2023-02-16T06:28:51.810Z,100.00
2023-02-16T06:31:18.609Z,100.00
2023-02-16T06:33:45.477Z,100.00
2023-02-16T06:36:12.356Z,100.00
2023-02-16T06:38:39.100Z,99.78
2023-02-16T06:41:06.374Z,100.00
2023-02-16T06:43:33.398Z,100.00
2023-02-16T06:46:00.292Z,99.85
2023-02-16T06:48:26.920Z,99.60
2023-02-16T06:51:11.953Z,100.00
2023-02-16T06:53:38.601Z,100.00
2023-02-16T06:56:05.496Z,100.00
2023-02-16T06:58:32.156Z,100.00
2023-02-16T07:00:58.809Z,100.00
2023-02-16T07:03:25.529Z,100.00
2023-02-16T07:05:52.218Z,99.93
2023-02-16T07:08:37.207Z,100.00
2023-02-16T07:11:22.309Z,100.00
2023-02-16T07:13:49.162Z,100.00
2023-02-16T07:16:34.153Z,99.46
2023-02-16T07:19:16.417Z,99.73
2023-02-16T07:21:43.666Z,98.91
2023-02-16T07:24:10.440Z,98.60
2023-02-16T07:26:38.682Z,99.24
2023-02-16T07:29:05.356Z,98.33
2023-02-16T07:31:32.038Z,98.62
2023-02-16T07:33:58.784Z,98.26
2023-02-16T07:36:25.487Z,100.00
2023-02-16T07:38:52.112Z,100.00
2023-02-16T07:41:18.675Z,99.94
2023-02-16T07:43:45.252Z,98.62
2023-02-16T07:46:11.940Z,98.94
2023-02-16T07:48:38.786Z,99.12
2023-02-16T07:51:06.008Z,98.72
2023-02-16T07:53:32.925Z,96.58
2023-02-16T07:55:59.656Z,96.97
2023-02-16T07:58:29.267Z,97.41
2023-02-16T08:01:16.124Z,97.21
2023-02-16T08:03:43.145Z,98.18
2023-02-16T08:06:09.715Z,98.51
2023-02-16T08:08:36.655Z,98.48
2023-02-16T08:11:18.606Z,98.76
2023-02-16T08:13:45.398Z,98.10
2023-02-16T08:16:18.045Z,97.15
2023-02-16T08:19:04.422Z,96.37
2023-02-16T08:21:33.594Z,96.67
2023-02-16T08:24:03.566Z,97.56
2023-02-16T08:26:40.070Z,97.41
2023-02-16T08:29:25.781Z,96.87
2023-02-16T08:31:53.820Z,97.33
2023-02-16T08:34:40.413Z,97.23
2023-02-16T08:37:26.831Z,96.11
2023-02-16T08:39:53.902Z,96.10
2023-02-16T08:42:21.189Z,94.75
2023-02-16T08:44:48.144Z,94.51
2023-02-16T08:47:16.680Z,95.59
2023-02-16T08:49:44.444Z,95.54
2023-02-16T08:52:12.430Z,95.24
2023-02-16T08:54:39.809Z,94.36
2023-02-16T08:57:06.695Z,94.71
2023-02-16T08:59:34.805Z,95.21
2023-02-16T09:02:01.988Z,95.17
2023-02-16T09:04:29.160Z,95.04
2023-02-16T09:06:56.508Z,94.42
2023-02-16T09:09:23.409Z,94.20
2023-02-16T09:11:50.085Z,93.49
2023-02-16T09:14:35.368Z,94.05
2023-02-16T09:17:02.972Z,93.82
2023-02-16T09:19:29.716Z,93.05
2023-02-16T09:22:15.254Z,91.88
2023-02-16T09:24:41.886Z,91.82
2023-02-16T09:27:09.406Z,90.83
2023-02-16T09:29:36.004Z,90.06
2023-02-16T09:32:02.734Z,89.25
2023-02-16T09:34:29.800Z,87.56
2023-02-16T09:36:56.532Z,85.68
2023-02-16T09:39:23.173Z,84.50
2023-02-16T09:42:01.547Z,83.18
2023-02-16T09:44:37.437Z,83.79
2023-02-16T09:47:15.404Z,84.05
2023-02-16T09:49:45.009Z,82.39
2023-02-16T09:52:27.073Z,81.49
2023-02-16T09:55:08.031Z,80.49
2023-02-16T09:57:55.577Z,80.72
2023-02-16T10:00:34.534Z,81.02
2023-02-16T10:03:19.069Z,78.99
2023-02-16T10:05:48.677Z,78.86
2023-02-16T10:08:24.778Z,78.58
2023-02-16T10:11:33.291Z,78.98
2023-02-16T10:14:07.961Z,79.68
2023-02-16T10:16:42.697Z,78.46
2023-02-16T10:19:22.529Z,79.13
2023-02-16T10:21:55.840Z,78.59
2023-02-16T10:24:25.934Z,78.28
2023-02-16T10:27:02.517Z,78.89
2023-02-16T10:29:29.440Z,79.56
2023-02-16T10:32:12.847Z,79.14
2023-02-16T10:35:21.804Z,78.21
2023-02-16T10:38:08.410Z,77.61
2023-02-16T10:41:27.942Z,76.86
2023-02-16T10:44:04.716Z,76.37
2023-02-16T10:46:57.036Z,74.33
2023-02-16T10:49:43.164Z,73.80
2023-02-16T10:52:11.542Z,73.95
2023-02-16T10:54:56.782Z,74.68
2023-02-16T10:57:30.917Z,76.33
2023-02-16T11:00:01.600Z,77.03
2023-02-16T11:02:51.301Z,78.31
2023-02-16T11:05:31.132Z,77.33
2023-02-16T11:08:01.757Z,76.97
2023-02-16T11:10:46.955Z,76.52
2023-02-16T11:13:34.611Z,77.13
2023-02-16T11:16:09.612Z,76.66
2023-02-16T11:18:40.102Z,77.22
2023-02-16T11:21:08.661Z,77.67
2023-02-16T11:24:02.104Z,76.87
2023-02-16T11:26:28.886Z,76.97
2023-02-16T11:29:13.294Z,76.68
2023-02-16T11:31:59.987Z,76.49
2023-02-16T11:34:34.662Z,76.89
2023-02-16T11:37:05.391Z,77.57
2023-02-16T11:39:37.471Z,77.39
2023-02-16T11:42:09.011Z,77.03
2023-02-16T11:44:41.239Z,77.46
2023-02-16T11:47:23.049Z,77.30
2023-02-16T11:50:04.701Z,77.57
2023-02-16T11:52:32.581Z,77.01
2023-02-16T11:55:01.992Z,76.54
2023-02-16T11:57:35.809Z,76.58
2023-02-16T12:00:14.355Z,73.84
2023-02-16T12:03:02.910Z,74.53
2023-02-16T12:06:08.285Z,75.42
2023-02-16T12:08:54.680Z,75.11
2023-02-16T12:11:44.074Z,74.90
2023-02-16T12:14:32.267Z,73.70
2023-02-16T12:17:18.899Z,74.33
2023-02-16T12:19:48.337Z,72.79
2023-02-16T12:22:14.931Z,72.71
2023-02-16T12:25:15.741Z,74.65
2023-02-16T12:28:13.399Z,73.33
2023-02-16T12:31:22.164Z,73.61
2023-02-16T12:34:23.641Z,73.58
2023-02-16T12:37:00.311Z,74.12
2023-02-16T12:39:39.529Z,74.08
2023-02-16T12:42:42.680Z,74.21
2023-02-16T12:45:14.121Z,71.47
2023-02-16T12:47:52.383Z,71.16
2023-02-16T12:50:27.136Z,71.82
2023-02-16T12:52:53.952Z,71.49
2023-02-16T12:55:42.110Z,71.57
2023-02-16T12:58:14.880Z,71.67
2023-02-16T13:00:52.490Z,70.52
2023-02-16T13:03:19.713Z,71.14
2023-02-16T13:05:54.258Z,70.00
2023-02-16T13:08:42.950Z,69.45
2023-02-16T13:11:28.322Z,69.15
2023-02-16T13:14:01.434Z,69.22
2023-02-16T13:16:39.409Z,68.89
2023-02-16T13:19:06.074Z,69.59
2023-02-16T13:22:01.533Z,68.91
2023-02-16T13:24:46.379Z,68.28
2023-02-16T13:27:37.248Z,68.44
2023-02-16T13:30:40.140Z,68.94
2023-02-16T13:33:18.111Z,69.03
2023-02-16T13:36:02.718Z,68.05
2023-02-16T13:38:40.834Z,68.60
2023-02-16T13:41:41.606Z,69.06
2023-02-16T13:44:19.120Z,68.46
2023-02-16T13:46:52.750Z,68.26
2023-02-16T13:49:40.329Z,68.67
2023-02-16T13:52:08.734Z,68.31
2023-02-16T13:54:43.778Z,68.29
2023-02-16T13:57:34.829Z,65.90
2023-02-16T14:00:05.827Z,64.61
2023-02-16T14:02:59.207Z,64.22
2023-02-16T14:05:35.416Z,64.29
2023-02-16T14:08:23.805Z,62.82
2023-02-16T14:10:53.336Z,62.52
2023-02-16T14:13:38.702Z,62.25
2023-02-16T14:16:17.313Z,60.20
2023-02-16T14:18:45.921Z,59.63
2023-02-16T14:21:28.518Z,59.69
2023-02-16T14:23:57.213Z,60.14
2023-02-16T14:26:24.752Z,59.58
2023-02-16T14:29:21.002Z,59.22
2023-02-16T14:31:56.983Z,59.76
2023-02-16T14:34:29.240Z,59.07
2023-02-16T14:37:28.582Z,58.65
2023-02-16T14:40:08.960Z,59.33
2023-02-16T14:42:36.081Z,59.36
2023-02-16T14:45:22.998Z,59.47
2023-02-16T14:48:13.379Z,58.53
2023-02-16T14:51:00.131Z,59.14
2023-02-16T14:53:29.504Z,58.59
2023-02-16T14:56:13.485Z,59.20
2023-02-16T14:59:02.373Z,58.76
2023-02-16T15:01:29.136Z,59.50
2023-02-16T15:03:57.985Z,58.64
2023-02-16T15:06:36.379Z,59.53
2023-02-16T15:09:13.302Z,59.59
2023-02-16T15:12:09.464Z,60.17
2023-02-16T15:14:42.963Z,60.62
2023-02-16T15:17:10.266Z,61.29
2023-02-16T15:19:37.367Z,61.35
2023-02-16T15:22:13.203Z,60.73
2023-02-16T15:24:41.250Z,62.25
2023-02-16T15:27:20.956Z,62.15
2023-02-16T15:30:20.353Z,61.70
2023-02-16T15:32:59.351Z,60.80
2023-02-16T15:35:29.752Z,61.10
2023-02-16T15:38:12.798Z,61.32
2023-02-16T15:40:40.059Z,60.41
2023-02-16T15:43:33.978Z,61.25
2023-02-16T15:46:03.315Z,60.83
2023-02-16T15:48:36.643Z,60.97
2023-02-16T15:51:20.860Z,61.56
2023-02-16T15:54:04.366Z,61.54
2023-02-16T15:56:44.795Z,61.72
2023-02-16T15:59:32.477Z,61.46
2023-02-16T16:02:03.743Z,61.16
2023-02-16T16:04:32.099Z,61.91
2023-02-16T16:07:00.045Z,62.21
2023-02-16T16:09:30.024Z,62.58
2023-02-16T16:12:03.929Z,63.27
2023-02-16T16:14:34.838Z,63.67
2023-02-16T16:17:03.229Z,64.13
2023-02-16T16:19:38.320Z,65.16
2023-02-16T16:22:29.653Z,65.86
2023-02-16T16:24:56.473Z,66.70
2023-02-16T16:27:33.213Z,67.24
2023-02-16T16:30:28.656Z,67.30
2023-02-16T16:33:03.486Z,68.15
2023-02-16T16:35:47.450Z,68.72
2023-02-16T16:38:26.241Z,69.67
2023-02-16T16:40:58.965Z,69.65
2023-02-16T16:43:51.843Z,70.85
2023-02-16T16:46:25.927Z,72.11
2023-02-16T16:48:56.608Z,71.83
2023-02-16T16:51:31.164Z,72.49
2023-02-16T16:54:00.746Z,73.40
2023-02-16T16:56:29.736Z,74.42
2023-02-16T16:58:58.524Z,74.87
2023-02-16T17:01:29.309Z,75.48
2023-02-16T17:03:56.506Z,76.00
2023-02-16T17:06:24.130Z,76.33
2023-02-16T17:08:51.031Z,76.88
2023-02-16T17:11:33.285Z,76.92
2023-02-16T17:14:14.277Z,77.46
2023-02-16T17:16:44.331Z,77.60
2023-02-16T17:19:16.968Z,78.00
2023-02-16T17:21:44.768Z,76.45
2023-02-16T17:24:12.900Z,75.75
2023-02-16T17:26:39.811Z,75.70
2023-02-16T17:29:07.157Z,76.26
2023-02-16T17:31:34.358Z,77.34
2023-02-16T17:34:01.358Z,78.26
2023-02-16T17:36:28.777Z,79.41
2023-02-16T17:38:55.507Z,80.66
2023-02-16T17:41:25.290Z,80.99
2023-02-16T17:43:52.264Z,80.76
2023-02-16T17:46:20.235Z,81.45
2023-02-16T17:48:53.374Z,82.86
2023-02-16T17:51:22.942Z,82.99
2023-02-16T17:53:49.919Z,82.72
2023-02-16T17:56:19.922Z,82.33
2023-02-16T17:58:46.531Z,83.09
2023-02-16T18:01:15.258Z,82.90
2023-02-16T18:03:42.183Z,84.13
2023-02-16T18:06:18.438Z,84.13
2023-02-16T18:08:46.243Z,83.79
2023-02-16T18:11:13.209Z,84.04
2023-02-16T18:13:40.077Z,83.69
2023-02-16T18:16:08.168Z,83.15
2023-02-16T18:18:39.017Z,83.02
2023-02-16T18:21:06.060Z,83.14
2023-02-16T18:23:33.036Z,82.64
2023-02-16T18:25:59.860Z,82.31
2023-02-16T18:28:30.707Z,82.39
2023-02-16T18:30:58.185Z,81.75
2023-02-16T18:33:25.493Z,82.00
2023-02-16T18:35:54.488Z,81.01
2023-02-16T18:38:22.503Z,80.13
2023-02-16T18:40:51.519Z,79.56
2023-02-16T18:43:18.254Z,79.88
2023-02-16T18:45:44.835Z,80.02
2023-02-16T18:48:11.521Z,79.36
2023-02-16T18:50:38.698Z,79.90
2023-02-16T18:53:06.185Z,79.69
2023-02-16T18:55:33.323Z,79.48
2023-02-16T18:58:01.385Z,79.95
2023-02-16T19:00:28.159Z,79.70
2023-02-16T19:02:55.891Z,79.43
2023-02-16T19:05:23.383Z,78.69
2023-02-16T19:07:50.838Z,77.73
2023-02-16T19:10:18.838Z,77.42
2023-02-16T19:12:45.449Z,75.92
2023-02-16T19:15:12.188Z,76.73
2023-02-16T19:17:39.109Z,76.97
2023-02-16T19:20:14.453Z,76.81
2023-02-16T19:22:41.327Z,76.18
2023-02-16T19:25:08.163Z,75.97
2023-02-16T19:27:35.150Z,75.89
2023-02-16T19:30:01.785Z,76.00
2023-02-16T19:32:30.969Z,76.25
2023-02-16T19:34:57.635Z,76.08
2023-02-16T19:37:24.472Z,76.41
2023-02-16T19:39:51.247Z,76.42
2023-02-16T19:42:17.878Z,76.61
2023-02-16T19:44:44.473Z,76.07
2023-02-16T19:47:11.153Z,76.33
2023-02-16T19:49:38.202Z,76.62
2023-02-16T19:52:05.244Z,76.47
2023-02-16T19:54:34.837Z,76.44
2023-02-16T19:57:03.143Z,76.92
2023-02-16T19:59:31.414Z,77.14
2023-02-16T20:01:58.982Z,77.53
2023-02-16T20:04:25.941Z,77.24
2023-02-16T20:06:54.341Z,77.16
2023-02-16T20:09:21.898Z,77.14
2023-02-16T20:11:49.564Z,77.00
2023-02-16T20:14:16.542Z,76.90
2023-02-16T20:16:43.420Z,76.72
2023-02-16T20:19:10.736Z,76.91
2023-02-16T20:21:37.730Z,76.56
2023-02-16T20:24:05.652Z,76.08
2023-02-16T20:26:52.001Z,76.01
2023-02-16T20:29:20.558Z,75.17
2023-02-16T20:31:52.943Z,75.06
2023-02-16T20:34:20.012Z,74.37
2023-02-16T20:36:46.706Z,73.36
2023-02-16T20:39:13.443Z,73.39
2023-02-16T20:41:40.895Z,74.20
2023-02-16T20:44:08.339Z,74.53
2023-02-16T20:46:35.085Z,74.47
2023-02-16T20:49:04.423Z,74.04
2023-02-16T20:51:31.635Z,74.12
2023-02-16T20:54:00.365Z,73.20
2023-02-16T20:56:28.310Z,71.80
2023-02-16T20:58:56.833Z,72.09
2023-02-16T21:01:30.636Z,72.23
2023-02-16T21:03:58.583Z,72.56
2023-02-16T21:06:25.749Z,71.60
2023-02-16T21:08:52.567Z,72.00
2023-02-16T21:11:19.528Z,72.07
2023-02-16T21:13:46.407Z,71.01
2023-02-16T21:16:14.146Z,70.26
2023-02-16T21:18:41.188Z,70.30
2023-02-16T21:21:14.988Z,71.40
2023-02-16T21:23:47.959Z,70.24
2023-02-16T21:26:15.874Z,71.04
2023-02-16T21:28:42.672Z,69.26
2023-02-16T21:31:15.536Z,68.21
2023-02-16T21:33:42.629Z,68.96
2023-02-16T21:36:12.432Z,68.29
2023-02-16T21:38:40.240Z,68.90
2023-02-16T21:41:24.784Z,68.11
2023-02-16T21:44:02.205Z,67.82
2023-02-16T21:46:37.756Z,67.35
2023-02-16T21:49:07.289Z,68.88
2023-02-16T21:51:36.846Z,67.59
2023-02-16T21:54:06.508Z,67.00
2023-02-16T21:56:45.234Z,66.21
2023-02-16T21:59:15.259Z,67.66
2023-02-16T22:01:48.312Z,67.25
2023-02-16T22:04:18.014Z,67.63
2023-02-16T22:06:46.872Z,67.41
2023-02-16T22:09:22.852Z,66.17
2023-02-16T22:11:53.154Z,65.30
2023-02-16T22:14:19.904Z,66.07
2023-02-16T22:16:48.173Z,66.15
2023-02-16T22:19:17.670Z,64.87
2023-02-16T22:21:45.856Z,64.77
2023-02-16T22:24:14.741Z,65.58
2023-02-16T22:26:42.424Z,65.14
2023-02-16T22:29:09.650Z,64.51
2023-02-16T22:31:37.183Z,64.35
2023-02-16T22:34:11.661Z,64.94
2023-02-16T22:36:40.029Z,65.40
2023-02-16T22:39:07.430Z,65.51
2023-02-16T22:41:34.973Z,63.95
2023-02-16T22:44:01.563Z,64.85
2023-02-16T22:46:29.501Z,65.03
2023-02-16T22:49:00.893Z,64.32
2023-02-16T22:51:29.233Z,65.13
2023-02-16T22:53:58.697Z,64.70
2023-02-16T22:56:26.853Z,64.58
2023-02-16T22:58:57.394Z,64.89
2023-02-16T23:01:25.495Z,65.56
2023-02-16T23:03:56.508Z,64.93
2023-02-16T23:06:29.190Z,65.62
2023-02-16T23:09:05.136Z,65.43
2023-02-16T23:11:32.777Z,65.53
2023-02-16T23:13:59.428Z,64.91
2023-02-16T23:16:27.324Z,65.50
2023-02-16T23:18:58.916Z,65.74
2023-02-16T23:21:28.931Z,66.43
2023-02-16T23:23:56.238Z,65.87
2023-02-16T23:26:25.875Z,66.13
2023-02-16T23:28:54.571Z,65.32
2023-02-16T23:31:21.727Z,66.22
2023-02-16T23:33:49.738Z,65.67
2023-02-16T23:36:16.636Z,63.74
2023-02-16T23:38:43.486Z,64.90
2023-02-16T23:41:13.250Z,64.56
2023-02-16T23:43:40.304Z,64.44
2023-02-16T23:46:07.667Z,65.78
2023-02-16T23:48:34.491Z,64.81
2023-02-16T23:51:01.102Z,64.23
2023-02-16T23:53:28.755Z,64.45
2023-02-16T23:56:11.544Z,64.23
2023-02-16T23:58:44.980Z,65.04
